sensor_id;sensor_type;location;lat;lon;timestamp;temperature;humidity
56300;DHT22;42209;6.376;-10.782;2023-06-24T00:00:20;23.00;83.30
56300;DHT22;42209;6.376;-10.782;2023-06-24T00:02:49;23.10;83.60
56300;DHT22;42209;6.376;-10.782;2023-06-24T00:05:17;23.10;84.10
56300;DHT22;42209;6.376;-10.782;2023-06-24T00:07:46;22.90;77.60
56300;DHT22;42209;6.376;-10.782;2023-06-24T00:10:14;22.60;74.20
56300;DHT22;42209;6.376;-10.782;2023-06-24T00:12:45;22.30;74.20
56300;DHT22;42209;6.376;-10.782;2023-06-24T00:15:13;22.40;78.90
56300;DHT22;42209;6.376;-10.782;2023-06-24T00:17:43;22.60;80.30
56300;DHT22;42209;6.376;-10.782;2023-06-24T00:20:13;22.70;81.20
56300;DHT22;42209;6.376;-10.782;2023-06-24T00:22:42;22.90;82.00
56300;DHT22;42209;6.376;-10.782;2023-06-24T00:25:10;22.90;82.20
56300;DHT22;42209;6.376;-10.782;2023-06-24T00:27:39;23.00;83.00
56300;DHT22;42209;6.376;-10.782;2023-06-24T00:30:08;23.10;83.50
56300;DHT22;42209;6.376;-10.782;2023-06-24T00:32:37;23.10;84.10
56300;DHT22;42209;6.376;-10.782;2023-06-24T00:35:06;22.90;76.30
56300;DHT22;42209;6.376;-10.782;2023-06-24T00:37:34;22.50;73.30
56300;DHT22;42209;6.376;-10.782;2023-06-24T00:40:03;22.30;74.20
56300;DHT22;42209;6.376;-10.782;2023-06-24T00:42:31;22.30;78.60
56300;DHT22;42209;6.376;-10.782;2023-06-24T00:45:00;22.60;80.00
56300;DHT22;42209;6.376;-10.782;2023-06-24T00:47:28;22.70;80.80
56300;DHT22;42209;6.376;-10.782;2023-06-24T00:49:59;22.80;81.60
56300;DHT22;42209;6.376;-10.782;2023-06-24T00:52:28;22.90;82.30
56300;DHT22;42209;6.376;-10.782;2023-06-24T00:54:56;23.00;83.10
56300;DHT22;42209;6.376;-10.782;2023-06-24T00:57:25;23.10;83.70
56300;DHT22;42209;6.376;-10.782;2023-06-24T00:59:53;23.10;84.30
56300;DHT22;42209;6.376;-10.782;2023-06-24T01:02:23;22.90;76.50
56300;DHT22;42209;6.376;-10.782;2023-06-24T01:04:51;22.50;73.00
56300;DHT22;42209;6.376;-10.782;2023-06-24T01:09:40;22.40;77.70
56300;DHT22;42209;6.376;-10.782;2023-06-24T01:12:09;22.60;79.00
56300;DHT22;42209;6.376;-10.782;2023-06-24T01:14:37;22.80;80.40
56300;DHT22;42209;6.376;-10.782;2023-06-24T01:17:32;22.80;81.20
56300;DHT22;42209;6.376;-10.782;2023-06-24T01:20:27;22.90;81.80
56300;DHT22;42209;6.376;-10.782;2023-06-24T01:23:35;23.00;82.80
56300;DHT22;42209;6.376;-10.782;2023-06-24T01:27:19;23.10;83.70
56300;DHT22;42209;6.376;-10.782;2023-06-24T01:29:56;23.10;84.20
56300;DHT22;42209;6.376;-10.782;2023-06-24T01:32:34;22.80;76.40
56300;DHT22;42209;6.376;-10.782;2023-06-24T01:35:11;22.40;72.30
56300;DHT22;42209;6.376;-10.782;2023-06-24T01:37:54;22.20;76.40
56300;DHT22;42209;6.376;-10.782;2023-06-24T01:40:38;22.40;79.60
56300;DHT22;42209;6.376;-10.782;2023-06-24T01:43:09;22.60;80.50
56300;DHT22;42209;6.376;-10.782;2023-06-24T01:45:43;22.70;81.40
56300;DHT22;42209;6.376;-10.782;2023-06-24T01:48:35;22.90;82.30
56300;DHT22;42209;6.376;-10.782;2023-06-24T01:51:10;23.00;83.10
56300;DHT22;42209;6.376;-10.782;2023-06-24T01:53:54;23.00;83.70
56300;DHT22;42209;6.376;-10.782;2023-06-24T01:56:26;23.10;84.40
56300;DHT22;42209;6.376;-10.782;2023-06-24T01:58:58;23.00;79.60
56300;DHT22;42209;6.376;-10.782;2023-06-24T02:01:29;22.70;74.70
56300;DHT22;42209;6.376;-10.782;2023-06-24T02:04:02;22.30;72.30
56300;DHT22;42209;6.376;-10.782;2023-06-24T02:06:31;22.30;78.30
56300;DHT22;42209;6.376;-10.782;2023-06-24T02:09:01;22.50;80.00
56300;DHT22;42209;6.376;-10.782;2023-06-24T02:11:31;22.70;81.00
56300;DHT22;42209;6.376;-10.782;2023-06-24T02:14:03;22.80;81.80
56300;DHT22;42209;6.376;-10.782;2023-06-24T02:16:33;22.90;82.50
56300;DHT22;42209;6.376;-10.782;2023-06-24T02:19:05;22.90;82.80
56300;DHT22;42209;6.376;-10.782;2023-06-24T02:21:35;23.00;84.10
56300;DHT22;42209;6.376;-10.782;2023-06-24T02:24:04;23.00;84.60
56300;DHT22;42209;6.376;-10.782;2023-06-24T02:26:35;23.10;85.40
56300;DHT22;42209;6.376;-10.782;2023-06-24T02:29:05;22.90;77.80
56300;DHT22;42209;6.376;-10.782;2023-06-24T02:31:33;22.50;74.20
56300;DHT22;42209;6.376;-10.782;2023-06-24T02:34:02;22.30;76.20
56300;DHT22;42209;6.376;-10.782;2023-06-24T02:36:30;22.40;80.00
56300;DHT22;42209;6.376;-10.782;2023-06-24T02:38:59;22.60;81.30
56300;DHT22;42209;6.376;-10.782;2023-06-24T02:41:27;22.70;81.70
56300;DHT22;42209;6.376;-10.782;2023-06-24T02:43:56;22.90;82.90
56300;DHT22;42209;6.376;-10.782;2023-06-24T02:46:26;23.00;83.50
56300;DHT22;42209;6.376;-10.782;2023-06-24T02:48:58;23.00;84.20
56300;DHT22;42209;6.376;-10.782;2023-06-24T02:51:27;23.10;84.50
56300;DHT22;42209;6.376;-10.782;2023-06-24T02:53:56;23.10;85.30
56300;DHT22;42209;6.376;-10.782;2023-06-24T02:56:46;22.90;78.00
56300;DHT22;42209;6.376;-10.782;2023-06-24T02:59:22;22.50;74.20
56300;DHT22;42209;6.376;-10.782;2023-06-24T03:01:51;22.20;77.30
56300;DHT22;42209;6.376;-10.782;2023-06-24T03:04:21;22.40;80.30
56300;DHT22;42209;6.376;-10.782;2023-06-24T03:06:50;22.60;81.40
56300;DHT22;42209;6.376;-10.782;2023-06-24T03:09:19;22.70;82.40
56300;DHT22;42209;6.376;-10.782;2023-06-24T03:11:51;22.80;83.20
56300;DHT22;42209;6.376;-10.782;2023-06-24T03:14:29;22.90;83.10
56300;DHT22;42209;6.376;-10.782;2023-06-24T03:16:58;23.00;84.50
56300;DHT22;42209;6.376;-10.782;2023-06-24T03:19:26;23.00;84.70
56300;DHT22;42209;6.376;-10.782;2023-06-24T03:21:55;23.10;85.90
56300;DHT22;42209;6.376;-10.782;2023-06-24T03:24:24;22.90;78.10
56300;DHT22;42209;6.376;-10.782;2023-06-24T03:26:53;22.50;74.40
56300;DHT22;42209;6.376;-10.782;2023-06-24T03:29:22;22.30;76.00
56300;DHT22;42209;6.376;-10.782;2023-06-24T03:31:56;22.30;80.00
56300;DHT22;42209;6.376;-10.782;2023-06-24T03:34:26;22.50;81.40
56300;DHT22;42209;6.376;-10.782;2023-06-24T03:36:55;22.70;82.20
56300;DHT22;42209;6.376;-10.782;2023-06-24T03:39:24;22.80;83.10
56300;DHT22;42209;6.376;-10.782;2023-06-24T03:41:53;22.90;83.80
56300;DHT22;42209;6.376;-10.782;2023-06-24T03:44:21;22.90;84.30
56300;DHT22;42209;6.376;-10.782;2023-06-24T03:46:50;23.00;85.10
56300;DHT22;42209;6.376;-10.782;2023-06-24T03:49:19;23.10;85.60
56300;DHT22;42209;6.376;-10.782;2023-06-24T03:51:48;23.10;84.00
56300;DHT22;42209;6.376;-10.782;2023-06-24T03:54:17;22.80;76.90
56300;DHT22;42209;6.376;-10.782;2023-06-24T03:56:45;22.40;73.80
56300;DHT22;42209;6.376;-10.782;2023-06-24T03:59:14;22.20;76.60
56300;DHT22;42209;6.376;-10.782;2023-06-24T04:01:43;22.30;79.80
56300;DHT22;42209;6.376;-10.782;2023-06-24T04:04:11;22.60;81.10
56300;DHT22;42209;6.376;-10.782;2023-06-24T04:06:40;22.70;81.90
56300;DHT22;42209;6.376;-10.782;2023-06-24T04:09:08;22.80;82.50
56300;DHT22;42209;6.376;-10.782;2023-06-24T04:11:37;22.90;83.00
56300;DHT22;42209;6.376;-10.782;2023-06-24T04:14:06;22.90;83.70
56300;DHT22;42209;6.376;-10.782;2023-06-24T04:16:35;23.00;84.40
56300;DHT22;42209;6.376;-10.782;2023-06-24T04:19:03;23.00;85.40
56300;DHT22;42209;6.376;-10.782;2023-06-24T04:21:31;23.10;85.70
56300;DHT22;42209;6.376;-10.782;2023-06-24T04:23:59;23.00;81.60
56300;DHT22;42209;6.376;-10.782;2023-06-24T04:26:28;22.60;76.20
56300;DHT22;42209;6.376;-10.782;2023-06-24T04:28:56;22.30;74.00
56300;DHT22;42209;6.376;-10.782;2023-06-24T04:31:24;22.20;79.00
56300;DHT22;42209;6.376;-10.782;2023-06-24T04:33:53;22.40;81.20
56300;DHT22;42209;6.376;-10.782;2023-06-24T04:36:21;22.60;81.90
56300;DHT22;42209;6.376;-10.782;2023-06-24T04:38:50;22.70;83.10
56300;DHT22;42209;6.376;-10.782;2023-06-24T04:41:18;22.80;83.60
56300;DHT22;42209;6.376;-10.782;2023-06-24T04:43:46;22.90;84.70
56300;DHT22;42209;6.376;-10.782;2023-06-24T04:46:15;22.90;85.20
56300;DHT22;42209;6.376;-10.782;2023-06-24T04:48:43;23.00;85.60
56300;DHT22;42209;6.376;-10.782;2023-06-24T04:51:12;23.00;86.40
56300;DHT22;42209;6.376;-10.782;2023-06-24T04:53:40;22.90;81.10
56300;DHT22;42209;6.376;-10.782;2023-06-24T04:56:08;22.60;76.30
56300;DHT22;42209;6.376;-10.782;2023-06-24T04:58:37;22.30;74.50
56300;DHT22;42209;6.376;-10.782;2023-06-24T05:01:05;22.30;79.90
56300;DHT22;42209;6.376;-10.782;2023-06-24T05:03:34;22.50;81.80
56300;DHT22;42209;6.376;-10.782;2023-06-24T05:06:02;22.60;82.50
56300;DHT22;42209;6.376;-10.782;2023-06-24T05:08:31;22.70;83.40
56300;DHT22;42209;6.376;-10.782;2023-06-24T05:10:59;22.80;83.80
56300;DHT22;42209;6.376;-10.782;2023-06-24T05:13:28;22.90;84.80
56300;DHT22;42209;6.376;-10.782;2023-06-24T05:15:56;22.90;85.50
56300;DHT22;42209;6.376;-10.782;2023-06-24T05:18:24;23.00;85.90
56300;DHT22;42209;6.376;-10.782;2023-06-24T05:20:53;23.00;86.20
56300;DHT22;42209;6.376;-10.782;2023-06-24T05:23:21;22.90;78.70
56300;DHT22;42209;6.376;-10.782;2023-06-24T05:25:50;22.50;75.10
56300;DHT22;42209;6.376;-10.782;2023-06-24T05:28:18;22.20;76.80
56300;DHT22;42209;6.376;-10.782;2023-06-24T05:30:47;22.30;80.60
56300;DHT22;42209;6.376;-10.782;2023-06-24T05:33:15;22.50;81.80
56300;DHT22;42209;6.376;-10.782;2023-06-24T05:35:44;22.60;82.80
56300;DHT22;42209;6.376;-10.782;2023-06-24T05:38:12;22.70;83.80
56300;DHT22;42209;6.376;-10.782;2023-06-24T05:40:41;22.80;83.90
56300;DHT22;42209;6.376;-10.782;2023-06-24T05:43:10;22.90;85.00
56300;DHT22;42209;6.376;-10.782;2023-06-24T05:45:39;22.90;85.40
56300;DHT22;42209;6.376;-10.782;2023-06-24T05:48:07;23.00;86.20
56300;DHT22;42209;6.376;-10.782;2023-06-24T05:50:36;23.10;86.40
56300;DHT22;42209;6.376;-10.782;2023-06-24T05:53:04;22.90;81.10
56300;DHT22;42209;6.376;-10.782;2023-06-24T05:55:32;22.60;76.30
56300;DHT22;42209;6.376;-10.782;2023-06-24T05:58:01;22.30;76.00
56300;DHT22;42209;6.376;-10.782;2023-06-24T06:00:30;22.30;80.40
56300;DHT22;42209;6.376;-10.782;2023-06-24T06:02:59;22.40;81.60
56300;DHT22;42209;6.376;-10.782;2023-06-24T06:05:27;22.60;82.70
56300;DHT22;42209;6.376;-10.782;2023-06-24T06:07:56;22.70;83.50
56300;DHT22;42209;6.376;-10.782;2023-06-24T06:10:24;22.80;84.30
56300;DHT22;42209;6.376;-10.782;2023-06-24T06:12:53;22.90;84.80
56300;DHT22;42209;6.376;-10.782;2023-06-24T06:15:21;22.90;85.40
56300;DHT22;42209;6.376;-10.782;2023-06-24T06:17:50;23.00;86.00
56300;DHT22;42209;6.376;-10.782;2023-06-24T06:20:19;23.10;86.80
56300;DHT22;42209;6.376;-10.782;2023-06-24T06:22:47;22.90;79.70
56300;DHT22;42209;6.376;-10.782;2023-06-24T06:25:16;22.50;76.40
56300;DHT22;42209;6.376;-10.782;2023-06-24T06:27:44;22.30;76.00
56300;DHT22;42209;6.376;-10.782;2023-06-24T06:30:14;22.30;81.10
56300;DHT22;42209;6.376;-10.782;2023-06-24T06:32:42;22.50;82.70
56300;DHT22;42209;6.376;-10.782;2023-06-24T06:35:11;22.70;83.50
56300;DHT22;42209;6.376;-10.782;2023-06-24T06:37:39;22.80;84.20
56300;DHT22;42209;6.376;-10.782;2023-06-24T06:40:08;22.80;84.60
56300;DHT22;42209;6.376;-10.782;2023-06-24T06:42:36;22.90;85.00
56300;DHT22;42209;6.376;-10.782;2023-06-24T06:45:05;22.90;85.60
56300;DHT22;42209;6.376;-10.782;2023-06-24T06:47:34;23.00;86.40
56300;DHT22;42209;6.376;-10.782;2023-06-24T06:50:02;23.00;86.50
56300;DHT22;42209;6.376;-10.782;2023-06-24T06:52:31;22.90;80.50
56300;DHT22;42209;6.376;-10.782;2023-06-24T06:54:59;22.50;75.70
56300;DHT22;42209;6.376;-10.782;2023-06-24T06:57:28;22.20;75.10
56300;DHT22;42209;6.376;-10.782;2023-06-24T06:59:56;22.20;80.30
56300;DHT22;42209;6.376;-10.782;2023-06-24T07:02:25;22.40;81.60
56300;DHT22;42209;6.376;-10.782;2023-06-24T07:04:53;22.60;82.50
56300;DHT22;42209;6.376;-10.782;2023-06-24T07:07:22;22.70;82.90
56300;DHT22;42209;6.376;-10.782;2023-06-24T07:09:51;22.70;83.60
56300;DHT22;42209;6.376;-10.782;2023-06-24T07:12:20;22.80;83.90
56300;DHT22;42209;6.376;-10.782;2023-06-24T07:14:48;22.90;84.90
56300;DHT22;42209;6.376;-10.782;2023-06-24T07:17:17;22.90;85.40
56300;DHT22;42209;6.376;-10.782;2023-06-24T07:19:45;22.90;85.00
56300;DHT22;42209;6.376;-10.782;2023-06-24T07:22:14;23.00;86.10
56300;DHT22;42209;6.376;-10.782;2023-06-24T07:24:43;22.90;81.40
56300;DHT22;42209;6.376;-10.782;2023-06-24T07:27:12;22.60;76.10
56300;DHT22;42209;6.376;-10.782;2023-06-24T07:29:40;22.20;75.10
56300;DHT22;42209;6.376;-10.782;2023-06-24T07:32:09;22.20;80.00
56300;DHT22;42209;6.376;-10.782;2023-06-24T07:34:38;22.40;81.50
56300;DHT22;42209;6.376;-10.782;2023-06-24T07:37:06;22.60;82.50
56300;DHT22;42209;6.376;-10.782;2023-06-24T07:39:50;22.70;82.60
56300;DHT22;42209;6.376;-10.782;2023-06-24T07:42:18;22.80;83.80
56300;DHT22;42209;6.376;-10.782;2023-06-24T07:44:47;22.80;84.10
56300;DHT22;42209;6.376;-10.782;2023-06-24T07:47:17;22.90;84.80
56300;DHT22;42209;6.376;-10.782;2023-06-24T07:49:46;22.90;85.40
56300;DHT22;42209;6.376;-10.782;2023-06-24T07:52:14;23.00;86.00
56300;DHT22;42209;6.376;-10.782;2023-06-24T07:54:43;23.00;86.10
56300;DHT22;42209;6.376;-10.782;2023-06-24T07:57:11;22.80;78.10
56300;DHT22;42209;6.376;-10.782;2023-06-24T07:59:40;22.40;74.80
56300;DHT22;42209;6.376;-10.782;2023-06-24T08:02:08;22.20;78.20
56300;DHT22;42209;6.376;-10.782;2023-06-24T08:04:37;22.30;81.20
56300;DHT22;42209;6.376;-10.782;2023-06-24T08:07:06;22.60;82.50
56300;DHT22;42209;6.376;-10.782;2023-06-24T08:09:34;22.70;83.40
56300;DHT22;42209;6.376;-10.782;2023-06-24T08:12:03;22.80;84.10
56300;DHT22;42209;6.376;-10.782;2023-06-24T08:14:32;22.80;84.40
56300;DHT22;42209;6.376;-10.782;2023-06-24T08:17:01;22.90;85.40
56300;DHT22;42209;6.376;-10.782;2023-06-24T08:19:30;22.90;85.70
56300;DHT22;42209;6.376;-10.782;2023-06-24T08:21:58;23.00;86.50
56300;DHT22;42209;6.376;-10.782;2023-06-24T08:24:37;23.00;86.80
56300;DHT22;42209;6.376;-10.782;2023-06-24T08:27:07;22.90;79.50
56300;DHT22;42209;6.376;-10.782;2023-06-24T08:29:36;22.50;76.00
56300;DHT22;42209;6.376;-10.782;2023-06-24T08:32:05;22.20;77.30
56300;DHT22;42209;6.376;-10.782;2023-06-24T08:34:33;22.30;81.70
56300;DHT22;42209;6.376;-10.782;2023-06-24T08:37:02;22.50;82.50
56300;DHT22;42209;6.376;-10.782;2023-06-24T08:39:31;22.60;83.50
56300;DHT22;42209;6.376;-10.782;2023-06-24T08:41:59;22.70;84.40
56300;DHT22;42209;6.376;-10.782;2023-06-24T08:44:28;22.80;84.90
56300;DHT22;42209;6.376;-10.782;2023-06-24T08:46:58;22.90;85.30
56300;DHT22;42209;6.376;-10.782;2023-06-24T08:49:29;22.90;85.80
56300;DHT22;42209;6.376;-10.782;2023-06-24T08:52:11;23.00;86.50
56300;DHT22;42209;6.376;-10.782;2023-06-24T08:54:43;23.00;84.80
56300;DHT22;42209;6.376;-10.782;2023-06-24T08:57:12;22.70;78.00
56300;DHT22;42209;6.376;-10.782;2023-06-24T08:59:41;22.30;75.20
56300;DHT22;42209;6.376;-10.782;2023-06-24T09:02:10;22.20;79.20
56300;DHT22;42209;6.376;-10.782;2023-06-24T09:04:39;22.30;81.70
56300;DHT22;42209;6.376;-10.782;2023-06-24T09:07:08;22.50;82.70
56300;DHT22;42209;6.376;-10.782;2023-06-24T09:09:43;22.70;83.80
56300;DHT22;42209;6.376;-10.782;2023-06-24T09:12:20;22.70;84.30
56300;DHT22;42209;6.376;-10.782;2023-06-24T09:14:49;22.90;85.20
56300;DHT22;42209;6.376;-10.782;2023-06-24T09:17:19;22.90;85.40
56300;DHT22;42209;6.376;-10.782;2023-06-24T09:19:49;23.00;86.50
56300;DHT22;42209;6.376;-10.782;2023-06-24T09:22:17;23.00;87.10
56300;DHT22;42209;6.376;-10.782;2023-06-24T09:24:47;23.00;83.50
56300;DHT22;42209;6.376;-10.782;2023-06-24T09:27:18;22.70;78.10
56300;DHT22;42209;6.376;-10.782;2023-06-24T09:29:46;22.30;75.00
56300;DHT22;42209;6.376;-10.782;2023-06-24T09:32:16;22.20;79.60
56300;DHT22;42209;6.376;-10.782;2023-06-24T09:34:48;22.30;81.90
56300;DHT22;42209;6.376;-10.782;2023-06-24T09:37:22;22.50;82.80
56300;DHT22;42209;6.376;-10.782;2023-06-24T09:39:51;22.70;83.40
56300;DHT22;42209;6.376;-10.782;2023-06-24T09:42:21;22.80;84.20
56300;DHT22;42209;6.376;-10.782;2023-06-24T09:44:56;22.80;84.70
56300;DHT22;42209;6.376;-10.782;2023-06-24T09:47:25;22.90;85.50
56300;DHT22;42209;6.376;-10.782;2023-06-24T09:49:53;22.90;86.00
56300;DHT22;42209;6.376;-10.782;2023-06-24T09:52:23;23.00;86.60
56300;DHT22;42209;6.376;-10.782;2023-06-24T09:54:54;22.80;78.70
56300;DHT22;42209;6.376;-10.782;2023-06-24T09:57:28;22.40;75.10
56300;DHT22;42209;6.376;-10.782;2023-06-24T09:59:59;22.20;77.70
56300;DHT22;42209;6.376;-10.782;2023-06-24T10:02:32;22.30;81.10
56300;DHT22;42209;6.376;-10.782;2023-06-24T10:05:02;22.50;82.30
56300;DHT22;42209;6.376;-10.782;2023-06-24T10:07:32;22.60;82.90
56300;DHT22;42209;6.376;-10.782;2023-06-24T10:10:03;22.80;83.50
56300;DHT22;42209;6.376;-10.782;2023-06-24T10:12:36;22.80;84.20
56300;DHT22;42209;6.376;-10.782;2023-06-24T10:15:05;22.90;84.90
56300;DHT22;42209;6.376;-10.782;2023-06-24T10:17:36;23.00;85.60
56300;DHT22;42209;6.376;-10.782;2023-06-24T10:20:05;23.00;86.00
56300;DHT22;42209;6.376;-10.782;2023-06-24T10:22:45;23.00;86.40
56300;DHT22;42209;6.376;-10.782;2023-06-24T10:25:14;22.80;78.60
56300;DHT22;42209;6.376;-10.782;2023-06-24T10:27:43;22.50;75.20
56300;DHT22;42209;6.376;-10.782;2023-06-24T10:30:18;22.20;75.80
56300;DHT22;42209;6.376;-10.782;2023-06-24T10:32:51;22.30;80.60
56300;DHT22;42209;6.376;-10.782;2023-06-24T10:35:28;22.50;81.80
56300;DHT22;42209;6.376;-10.782;2023-06-24T10:38:01;22.70;82.70
56300;DHT22;42209;6.376;-10.782;2023-06-24T10:40:41;22.80;83.50
56300;DHT22;42209;6.376;-10.782;2023-06-24T10:45:53;22.90;84.60
56300;DHT22;42209;6.376;-10.782;2023-06-24T10:48:23;23.00;85.70
56300;DHT22;42209;6.376;-10.782;2023-06-24T10:50:52;23.00;82.60
56300;DHT22;42209;6.376;-10.782;2023-06-24T10:53:21;22.70;76.50
56300;DHT22;42209;6.376;-10.782;2023-06-24T10:55:57;22.40;74.10
56300;DHT22;42209;6.376;-10.782;2023-06-24T10:58:26;22.20;77.20
56300;DHT22;42209;6.376;-10.782;2023-06-24T11:01:06;22.30;80.10
56300;DHT22;42209;6.376;-10.782;2023-06-24T11:03:40;22.60;81.40
56300;DHT22;42209;6.376;-10.782;2023-06-24T11:06:10;22.70;82.70
56300;DHT22;42209;6.376;-10.782;2023-06-24T11:08:46;22.80;83.40
56300;DHT22;42209;6.376;-10.782;2023-06-24T11:11:19;22.90;84.30
56300;DHT22;42209;6.376;-10.782;2023-06-24T11:13:52;23.00;84.90
56300;DHT22;42209;6.376;-10.782;2023-06-24T11:16:21;23.00;85.90
56300;DHT22;42209;6.376;-10.782;2023-06-24T11:18:49;23.00;81.50
56300;DHT22;42209;6.376;-10.782;2023-06-24T11:21:17;22.70;76.30
56300;DHT22;42209;6.376;-10.782;2023-06-24T11:23:46;22.30;73.50
56300;DHT22;42209;6.376;-10.782;2023-06-24T11:26:15;22.20;78.50
56300;DHT22;42209;6.376;-10.782;2023-06-24T11:28:44;22.40;80.30
56300;DHT22;42209;6.376;-10.782;2023-06-24T11:31:12;22.60;81.50
56300;DHT22;42209;6.376;-10.782;2023-06-24T11:33:40;22.70;82.60
56300;DHT22;42209;6.376;-10.782;2023-06-24T11:36:10;22.80;83.40
56300;DHT22;42209;6.376;-10.782;2023-06-24T11:38:39;22.90;84.00
56300;DHT22;42209;6.376;-10.782;2023-06-24T11:41:08;23.00;84.80
56300;DHT22;42209;6.376;-10.782;2023-06-24T11:43:36;23.10;85.40
56300;DHT22;42209;6.376;-10.782;2023-06-24T11:46:05;23.00;80.70
56300;DHT22;42209;6.376;-10.782;2023-06-24T11:48:41;22.70;75.70
56300;DHT22;42209;6.376;-10.782;2023-06-24T11:51:13;22.40;73.00
56300;DHT22;42209;6.376;-10.782;2023-06-24T11:53:46;22.20;76.60
56300;DHT22;42209;6.376;-10.782;2023-06-24T11:56:14;22.40;79.50
56300;DHT22;42209;6.376;-10.782;2023-06-24T11:58:53;22.60;80.80
56300;DHT22;42209;6.376;-10.782;2023-06-24T12:01:21;22.80;81.90
56300;DHT22;42209;6.376;-10.782;2023-06-24T12:03:50;22.90;82.60
56300;DHT22;42209;6.376;-10.782;2023-06-24T12:06:18;22.90;83.30
56300;DHT22;42209;6.376;-10.782;2023-06-24T12:08:47;23.00;83.70
56300;DHT22;42209;6.376;-10.782;2023-06-24T12:11:19;23.10;84.50
56300;DHT22;42209;6.376;-10.782;2023-06-24T12:13:48;22.90;76.80
56300;DHT22;42209;6.376;-10.782;2023-06-24T12:16:16;22.60;73.70
56300;DHT22;42209;6.376;-10.782;2023-06-24T12:18:45;22.30;71.70
56300;DHT22;42209;6.376;-10.782;2023-06-24T12:21:13;22.30;77.40
56300;DHT22;42209;6.376;-10.782;2023-06-24T12:23:42;22.50;79.30
56300;DHT22;42209;6.376;-10.782;2023-06-24T12:26:11;22.70;80.60
56300;DHT22;42209;6.376;-10.782;2023-06-24T12:28:40;22.80;81.40
56300;DHT22;42209;6.376;-10.782;2023-06-24T12:31:08;22.90;82.30
56300;DHT22;42209;6.376;-10.782;2023-06-24T12:33:37;23.00;83.10
56300;DHT22;42209;6.376;-10.782;2023-06-24T12:36:06;23.10;84.10
56300;DHT22;42209;6.376;-10.782;2023-06-24T12:38:34;23.10;78.90
56300;DHT22;42209;6.376;-10.782;2023-06-24T12:41:03;22.70;74.20
56300;DHT22;42209;6.376;-10.782;2023-06-24T12:43:33;22.50;72.20
56300;DHT22;42209;6.376;-10.782;2023-06-24T12:46:01;22.20;72.20
56300;DHT22;42209;6.376;-10.782;2023-06-24T12:48:33;22.30;77.20
56300;DHT22;42209;6.376;-10.782;2023-06-24T12:51:02;22.60;79.10
56300;DHT22;42209;6.376;-10.782;2023-06-24T12:53:31;22.70;80.70
56300;DHT22;42209;6.376;-10.782;2023-06-24T12:55:59;22.90;81.30
56300;DHT22;42209;6.376;-10.782;2023-06-24T12:58:28;23.00;81.90
56300;DHT22;42209;6.376;-10.782;2023-06-24T13:00:56;23.10;82.50
56300;DHT22;42209;6.376;-10.782;2023-06-24T13:03:34;23.10;83.50
56300;DHT22;42209;6.376;-10.782;2023-06-24T13:06:03;23.00;76.50
56300;DHT22;42209;6.376;-10.782;2023-06-24T13:08:31;22.70;73.40
56300;DHT22;42209;6.376;-10.782;2023-06-24T13:11:00;22.40;71.20
56300;DHT22;42209;6.376;-10.782;2023-06-24T13:13:28;22.30;72.70
56300;DHT22;42209;6.376;-10.782;2023-06-24T13:15:57;22.40;77.10
56300;DHT22;42209;6.376;-10.782;2023-06-24T13:18:25;22.60;78.70
56300;DHT22;42209;6.376;-10.782;2023-06-24T13:20:54;22.80;80.00
56300;DHT22;42209;6.376;-10.782;2023-06-24T13:23:42;22.90;80.60
56300;DHT22;42209;6.376;-10.782;2023-06-24T13:26:11;23.00;81.90
56300;DHT22;42209;6.376;-10.782;2023-06-24T13:28:39;23.10;82.40
56300;DHT22;42209;6.376;-10.782;2023-06-24T13:31:07;23.00;75.60
56300;DHT22;42209;6.376;-10.782;2023-06-24T13:33:36;22.70;72.30
56300;DHT22;42209;6.376;-10.782;2023-06-24T13:36:04;22.40;70.60
56300;DHT22;42209;6.376;-10.782;2023-06-24T13:38:35;22.30;75.40
56300;DHT22;42209;6.376;-10.782;2023-06-24T13:41:03;22.50;78.00
56300;DHT22;42209;6.376;-10.782;2023-06-24T13:43:32;22.80;79.40
56300;DHT22;42209;6.376;-10.782;2023-06-24T13:46:00;22.90;80.50
56300;DHT22;42209;6.376;-10.782;2023-06-24T13:48:28;23.00;81.40
56300;DHT22;42209;6.376;-10.782;2023-06-24T13:50:57;23.10;82.10
56300;DHT22;42209;6.376;-10.782;2023-06-24T13:53:25;23.20;81.20
56300;DHT22;42209;6.376;-10.782;2023-06-24T13:55:54;23.00;74.60
56300;DHT22;42209;6.376;-10.782;2023-06-24T13:58:22;22.60;71.80
56300;DHT22;42209;6.376;-10.782;2023-06-24T14:00:51;22.40;70.00
56300;DHT22;42209;6.376;-10.782;2023-06-24T14:03:19;22.30;73.50
56300;DHT22;42209;6.376;-10.782;2023-06-24T14:05:47;22.40;76.30
56300;DHT22;42209;6.376;-10.782;2023-06-24T14:08:16;22.70;78.20
56300;DHT22;42209;6.376;-10.782;2023-06-24T14:10:44;22.90;79.40
56300;DHT22;42209;6.376;-10.782;2023-06-24T14:13:13;23.00;80.40
56300;DHT22;42209;6.376;-10.782;2023-06-24T14:15:41;23.10;81.40
56300;DHT22;42209;6.376;-10.782;2023-06-24T14:18:10;23.20;81.80
56300;DHT22;42209;6.376;-10.782;2023-06-24T14:20:38;23.00;74.40
56300;DHT22;42209;6.376;-10.782;2023-06-24T14:23:07;22.70;71.50
56300;DHT22;42209;6.376;-10.782;2023-06-24T14:25:36;22.40;68.90
56300;DHT22;42209;6.376;-10.782;2023-06-24T14:28:04;22.30;71.20
56300;DHT22;42209;6.376;-10.782;2023-06-24T14:30:33;22.40;75.30
56300;DHT22;42209;6.376;-10.782;2023-06-24T14:33:02;22.70;76.80
56300;DHT22;42209;6.376;-10.782;2023-06-24T14:35:31;22.90;78.00
56300;DHT22;42209;6.376;-10.782;2023-06-24T14:37:59;23.00;78.80
56300;DHT22;42209;6.376;-10.782;2023-06-24T14:40:28;23.10;79.70
56300;DHT22;42209;6.376;-10.782;2023-06-24T14:42:56;23.20;80.50
56300;DHT22;42209;6.376;-10.782;2023-06-24T14:45:24;23.20;81.00
56300;DHT22;42209;6.376;-10.782;2023-06-24T14:47:54;23.00;73.50
56300;DHT22;42209;6.376;-10.782;2023-06-24T14:50:24;22.70;70.20
56300;DHT22;42209;6.376;-10.782;2023-06-24T14:52:52;22.40;68.40
56300;DHT22;42209;6.376;-10.782;2023-06-24T14:55:20;22.30;72.80
56300;DHT22;42209;6.376;-10.782;2023-06-24T14:57:48;22.50;75.60
56300;DHT22;42209;6.376;-10.782;2023-06-24T15:00:17;22.70;77.00
56300;DHT22;42209;6.376;-10.782;2023-06-24T15:02:45;22.90;78.10
56300;DHT22;42209;6.376;-10.782;2023-06-24T15:05:13;23.00;79.00
56300;DHT22;42209;6.376;-10.782;2023-06-24T15:07:44;23.10;79.70
56300;DHT22;42209;6.376;-10.782;2023-06-24T15:10:12;23.20;81.00
56300;DHT22;42209;6.376;-10.782;2023-06-24T15:12:40;23.20;76.60
56300;DHT22;42209;6.376;-10.782;2023-06-24T15:15:09;22.90;71.50
56300;DHT22;42209;6.376;-10.782;2023-06-24T15:17:37;22.60;69.20
56300;DHT22;42209;6.376;-10.782;2023-06-24T15:20:08;22.30;69.30
56300;DHT22;42209;6.376;-10.782;2023-06-24T15:22:37;22.50;74.40
56300;DHT22;42209;6.376;-10.782;2023-06-24T15:25:05;22.60;76.00
56300;DHT22;42209;6.376;-10.782;2023-06-24T15:27:34;22.90;77.20
56300;DHT22;42209;6.376;-10.782;2023-06-24T15:30:02;23.00;78.10
56300;DHT22;42209;6.376;-10.782;2023-06-24T15:32:31;23.10;78.90
56300;DHT22;42209;6.376;-10.782;2023-06-24T15:35:02;23.20;79.70
56300;DHT22;42209;6.376;-10.782;2023-06-24T15:37:30;23.30;79.90